Time;durP1;ratioP1;P1;durP2;ratioP2;P2;SDS_P1;SDS_P2;PMS_P1;PMS_P2;Temp;Humidity;BMP_temperature;BMP_pressure;BME280_temperature;BME280_humidity;BME280_pressure;Samples;Min_cycle;Max_cycle;Signal;HPM_P1;HPM_P2
2022/10/29 00:00:22;;;;;;;43.00;32.20;;;;;;;10.16;80.85;99550.17;86125;1295;98193;-82
2022/10/29 00:02:43;;;;;;;40.20;28.70;;;;;;;10.12;80.88;99549.83;86293;1301;25668;-81
2022/10/29 00:05:03;;;;;;;44.90;30.70;;;;;;;10.09;80.85;99542.55;86487;1306;22501;-80
2022/10/29 00:07:04;;;;;;;44.60;30.90;;;;;;;10.06;80.94;99540.19;86299;1307;98378;-78
2022/10/29 00:09:23;;;;;;;49.30;30.30;;;;;;;10.05;81.16;99536.70;86438;1284;22514;-81
2022/10/29 00:11:42;;;;;;;36.70;29.60;;;;;;;10.06;81.15;99534.40;86410;1297;24367;-81
2022/10/29 00:13:45;;;;;;;48.70;31.10;;;;;;;10.07;81.13;99532.25;86452;1306;98383;-83
2022/10/29 00:15:47;;;;;;;38.40;28.80;;;;;;;10.09;81.26;99532.73;86536;1297;22528;-82
2022/10/29 00:17:49;;;;;;;38.10;30.20;;;;;;;10.09;81.43;99534.80;86439;1296;22516;-81
2022/10/29 00:19:50;;;;;;;43.10;31.80;;;;;;;10.10;81.26;99533.04;86308;1313;98154;-78
2022/10/29 00:21:52;;;;;;;49.00;32.20;;;;;;;10.10;81.38;99531.45;86311;1293;24086;-81
2022/10/29 00:23:53;;;;;;;42.60;30.70;;;;;;;10.10;81.44;99529.70;86323;1312;25339;-81
2022/10/29 00:25:59;;;;;;;45.50;31.20;;;;;;;10.09;81.29;99534.48;86253;1315;99729;-80
2022/10/29 00:28:00;;;;;;;40.70;30.30;;;;;;;10.08;81.33;99531.00;86383;1298;22517;-80
2022/10/29 00:30:03;;;;;;;48.10;31.10;;;;;;;10.06;81.25;99531.44;86215;1315;22549;-80
2022/10/29 00:32:05;;;;;;;52.60;32.20;;;;;;;10.03;81.16;99527.14;86226;1313;98652;-81
2022/10/29 00:34:07;;;;;;;40.60;29.90;;;;;;;10.01;81.34;99525.97;86383;1309;23302;-79
2022/10/29 00:36:11;;;;;;;46.60;29.60;;;;;;;10.00;81.24;99527.77;86281;1298;98521;-81
2022/10/29 00:38:13;;;;;;;50.00;32.00;;;;;;;9.98;81.14;99527.86;86409;1288;22584;-82
2022/10/29 00:40:14;;;;;;;45.70;30.10;;;;;;;9.95;81.17;99523.20;86340;1291;22488;-80
2022/10/29 00:42:33;;;;;;;44.40;29.80;;;;;;;9.91;81.29;99514.92;86192;1290;98119;-81
2022/10/29 00:44:37;;;;;;;44.60;31.00;;;;;;;9.86;81.21;99513.55;86297;1298;22776;-81
2022/10/29 00:46:49;;;;;;;53.30;32.10;;;;;;;9.81;81.31;99520.92;86240;1290;25581;-80
2022/10/29 00:49:10;;;;;;;50.10;31.90;;;;;;;9.79;81.42;99519.07;86270;1290;98050;-81
2022/10/29 00:51:14;;;;;;;45.20;30.40;;;;;;;9.77;81.48;99515.61;86196;1293;22565;-82
2022/10/29 00:53:20;;;;;;;44.40;30.50;;;;;;;9.77;81.58;99513.70;86287;1291;22607;-80
2022/10/29 00:55:22;;;;;;;52.50;31.50;;;;;;;9.74;81.28;99516.24;86166;1290;98092;-78
2022/10/29 00:57:33;;;;;;;49.60;31.00;;;;;;;9.71;81.41;99515.82;86442;1291;22510;-79
2022/10/29 00:59:35;;;;;;;;;;;;;;;9.68;81.49;99512.76;86294;1290;25569;-81
2022/10/29 01:01:38;;;;;;;;;;;;;;;9.65;81.50;99508.30;86484;1297;84093;-80
2022/10/29 01:03:40;;;;;;;46.90;30.40;;;;;;;9.64;81.63;99506.96;86376;1292;22524;-78
2022/10/29 01:05:44;;;;;;;53.30;31.00;;;;;;;9.63;81.55;99509.46;86233;1298;22880;-77
2022/10/29 01:07:46;;;;;;;47.80;32.20;;;;;;;9.61;81.76;99507.95;86189;1289;98745;-80
2022/10/29 01:09:48;;;;;;;48.60;30.70;;;;;;;9.60;81.50;99505.17;86219;1291;22496;-80
2022/10/29 01:12:05;;;;;;;45.90;31.60;;;;;;;9.58;81.74;99501.71;86318;1291;22661;-79
2022/10/29 01:14:50;;;;;;;48.10;31.30;;;;;;;9.59;81.81;99505.20;86176;1291;99017;-80
2022/10/29 01:17:09;;;;;;;47.00;32.10;;;;;;;9.62;81.78;99500.02;86295;1288;23071;-80
2022/10/29 01:19:56;;;;;;;44.10;33.00;;;;;;;9.66;82.09;99495.31;86230;1284;98698;-79
2022/10/29 01:22:15;;;;;;;46.00;32.60;;;;;;;9.71;81.95;99494.42;86398;1297;22729;-81
2022/10/29 01:24:54;;;;;;;46.20;32.20;;;;;;;9.75;81.96;99491.83;86067;1315;98213;-81
2022/10/29 01:27:04;;;;;;;47.10;31.40;;;;;;;9.81;82.28;99489.33;85877;1312;25254;-81
2022/10/29 01:29:37;;;;;;;45.50;30.90;;;;;;;9.86;82.22;99490.55;85801;1295;26503;-80
2022/10/29 01:31:38;;;;;;;41.50;28.60;;;;;;;9.90;82.19;99484.77;85670;1297;97918;-79
2022/10/29 01:34:10;;;;;;;45.20;27.90;;;;;;;9.94;82.13;99484.27;85666;1319;22497;-81
2022/10/29 01:36:39;;;;;;;39.50;27.20;;;;;;;9.98;82.02;99483.77;85703;1306;98714;-80
2022/10/29 01:38:47;;;;;;;35.00;26.30;;;;;;;10.00;82.16;99482.66;85670;1315;22937;-81
2022/10/29 01:40:59;;;;;;;34.60;25.50;;;;;;;10.00;82.13;99482.11;85785;1319;22635;-78
2022/10/29 01:43:09;;;;;;;38.80;26.40;;;;;;;9.99;82.04;99478.10;85530;1305;98060;-79
2022/10/29 01:45:18;;;;;;;34.90;26.10;;;;;;;10.00;81.95;99472.99;85543;1313;23464;-80
2022/10/29 01:47:23;;;;;;;39.10;25.80;;;;;;;9.99;81.96;99477.77;85637;1321;24282;-81
2022/10/29 01:49:37;;;;;;;42.40;26.50;;;;;;;10.00;82.00;99472.13;85752;1302;98306;-81
2022/10/29 01:51:41;;;;;;;37.50;26.30;;;;;;;10.01;82.11;99471.36;85855;1309;22497;-80
2022/10/29 01:53:44;;;;;;;38.10;25.30;;;;;;;10.02;82.07;99470.29;85807;1304;22474;-81
2022/10/29 01:55:45;;;;;;;29.60;22.40;;;;;;;10.04;82.07;99470.04;85631;1312;99445;-81
2022/10/29 01:57:47;;;;;;;39.80;24.50;;;;;;;10.06;82.14;99469.59;85665;1323;24261;-80
2022/10/29 01:59:50;;;;;;;36.30;24.10;;;;;;;10.09;82.07;99470.38;85557;1306;23108;-77
2022/10/29 02:02:15;;;;;;;31.00;22.30;;;;;;;10.12;82.13;99466.59;85728;1321;99140;-81
2022/10/29 02:04:45;;;;;;;38.40;21.70;;;;;;;10.16;82.06;99469.04;86278;1306;22468;-81
2022/10/29 02:07:17;;;;;;;28.70;21.00;;;;;;;10.21;82.12;99459.02;86314;1297;98222;-79
2022/10/29 02:09:57;;;;;;;30.20;22.00;;;;;;;10.25;82.20;99452.19;86394;1298;22533;-81
2022/10/29 02:12:11;;;;;;;28.60;20.30;;;;;;;10.29;82.09;99444.69;86422;1297;22779;-80
2022/10/29 02:15:02;;;;;;;27.70;20.70;;;;;;;10.32;82.15;99441.58;86496;1313;22715;-81
2022/10/29 02:17:23;;;;;;;32.60;22.30;;;;;;;10.34;82.09;99442.19;86290;1312;25360;-80
2022/10/29 02:19:31;;;;;;;31.20;21.70;;;;;;;10.36;82.06;99446.15;86276;1305;98157;-80
2022/10/29 02:21:33;;;;;;;30.50;21.90;;;;;;;10.38;82.09;99442.04;86254;1307;22518;-81
2022/10/29 02:23:37;;;;;;;30.40;22.00;;;;;;;10.40;82.12;99439.16;85947;1317;22816;-81
2022/10/29 02:25:39;;;;;;;37.30;22.70;;;;;;;10.42;82.18;99437.17;86399;1290;98342;-81
2022/10/29 02:27:41;;;;;;;30.70;21.50;;;;;;;10.45;82.09;99441.63;86298;1302;22486;-80
2022/10/29 02:29:43;;;;;;;36.30;22.50;;;;;;;10.47;82.08;99436.10;86151;1317;22935;-80
2022/10/29 02:31:44;;;;;;;34.50;21.60;;;;;;;10.48;82.08;99435.17;86289;1286;98776;-80
2022/10/29 02:33:46;;;;;;;27.80;21.10;;;;;;;10.50;82.10;99435.80;86364;1291;22495;-81
2022/10/29 02:35:47;;;;;;;29.20;20.80;;;;;;;10.51;82.13;99435.02;86374;1307;22516;-79
2022/10/29 02:37:49;;;;;;;29.30;21.00;;;;;;;10.52;82.07;99438.32;86233;1300;98303;-81
2022/10/29 02:39:50;;;;;;;27.50;20.50;;;;;;;10.53;82.15;99435.63;86152;1293;22100;-81
2022/10/29 02:41:53;;;;;;;28.80;21.00;;;;;;;10.54;82.04;99439.83;86346;1313;25945;-80
2022/10/29 02:43:54;;;;;;;33.70;20.40;;;;;;;10.55;82.16;99444.17;86104;1297;98499;-81
2022/10/29 02:46:13;;;;;;;36.00;22.10;;;;;;;10.57;82.03;99446.58;86259;1296;22440;-80
2022/10/29 02:48:14;;;;;;;32.50;21.40;;;;;;;10.58;82.06;99448.45;86068;1291;98882;-81
2022/10/29 02:50:33;;;;;;;33.80;22.30;;;;;;;10.59;82.12;99450.88;86398;1305;22543;-80
2022/10/29 02:52:35;;;;;;;28.50;21.70;;;;;;;10.60;82.09;99446.10;86315;1314;22498;-80
2022/10/29 02:54:38;;;;;;;30.00;21.90;;;;;;;10.60;82.08;99442.92;86156;1297;98540;-79
2022/10/29 02:56:39;;;;;;;28.90;20.80;;;;;;;10.58;81.94;99436.88;86209;1315;22934;-79
2022/10/29 02:58:41;;;;;;;30.70;20.70;;;;;;;10.62;82.01;99439.70;86125;1299;22703;-81
2022/10/29 03:00:42;;;;;;;27.70;19.30;;;;;;;10.62;82.01;99434.77;86131;1291;98170;-81
2022/10/29 03:02:44;;;;;;;34.90;21.20;;;;;;;10.62;82.01;99437.03;86298;1312;22523;-81
2022/10/29 03:04:46;;;;;;;34.70;20.10;;;;;;;10.63;82.04;99430.35;86292;1296;22540;-82
2022/10/29 03:06:47;;;;;;;30.70;20.40;;;;;;;10.63;82.02;99431.91;86247;1314;98708;-80
2022/10/29 03:09:06;;;;;;;28.50;19.60;;;;;;;10.64;81.98;99432.23;86379;1296;22331;-80
2022/10/29 03:11:09;;;;;;;26.30;17.80;;;;;;;10.64;82.06;99434.17;86295;1296;22515;-79
2022/10/29 03:13:11;;;;;;;33.40;19.40;;;;;;;10.63;81.99;99437.67;86198;1298;98070;-80
2022/10/29 03:15:30;;;;;;;28.10;18.50;;;;;;;10.64;82.02;99430.81;86350;1302;22494;-79
2022/10/29 03:17:31;;;;;;;23.60;18.40;;;;;;;10.65;82.03;99429.20;86284;1315;22479;-79
2022/10/29 03:19:33;;;;;;;25.80;18.20;;;;;;;10.65;81.90;99432.53;86245;1311;98077;-78
2022/10/29 03:21:34;;;;;;;23.80;17.40;;;;;;;10.66;81.96;99432.52;86298;1314;22582;-80
2022/10/29 03:23:36;;;;;;;29.20;17.90;;;;;;;10.65;81.93;99431.84;86286;1314;22494;-80
2022/10/29 03:25:38;;;;;;;25.90;17.90;;;;;;;10.64;81.92;99432.73;86005;1298;98278;-80
2022/10/29 03:27:41;;;;;;;25.80;17.20;;;;;;;10.64;81.92;99427.49;86351;1304;25555;-81
2022/10/29 03:30:00;;;;;;;25.80;16.70;;;;;;;10.62;81.90;99431.41;86217;1312;22451;-81
2022/10/29 03:32:02;;;;;;;26.10;16.10;;;;;;;10.62;82.02;99430.73;86043;1314;98277;-77
2022/10/29 03:34:03;;;;;;;27.00;16.30;;;;;;;10.59;81.93;99429.77;86287;1298;22499;-77
2022/10/29 03:36:06;;;;;;;26.60;16.60;;;;;;;10.58;81.89;99432.66;86139;1301;22667;-80
2022/10/29 03:38:07;;;;;;;27.20;17.00;;;;;;;10.55;81.95;99426.25;86091;1288;98252;-80
2022/10/29 03:40:09;;;;;;;23.30;16.80;;;;;;;10.53;81.90;99420.88;86362;1295;22931;-80
2022/10/29 03:42:11;;;;;;;25.80;17.20;;;;;;;10.51;81.89;99416.95;86195;1292;22596;-80
2022/10/29 03:44:13;;;;;;;27.30;17.50;;;;;;;10.49;81.86;99416.87;86217;1296;22505;-81
2022/10/29 03:46:14;;;;;;;27.10;17.10;;;;;;;10.47;81.96;99421.32;86118;1299;22729;-80
2022/10/29 03:48:16;;;;;;;35.60;17.60;;;;;;;10.47;81.93;99420.64;86152;1313;98467;-80
2022/10/29 03:50:18;;;;;;;22.60;16.90;;;;;;;10.43;81.88;99417.95;86129;1313;24260;-80
2022/10/29 03:52:37;;;;;;;21.90;15.40;;;;;;;10.40;81.89;99411.94;86067;1299;22647;-79
2022/10/29 03:54:39;;;;;;;23.50;16.00;;;;;;;10.37;81.91;99406.79;86118;1300;98416;-80
2022/10/29 03:56:40;;;;;;;24.70;17.30;;;;;;;10.35;81.94;99404.79;86113;1299;24986;-80
2022/10/29 03:58:42;;;;;;;22.30;16.30;;;;;;;10.33;82.02;99402.86;86201;1313;26533;-80
2022/10/29 04:00:51;;;;;;;23.00;15.70;;;;;;;10.33;81.93;99403.24;86111;1312;99037;-79
2022/10/29 04:02:53;;;;;;;22.00;15.40;;;;;;;10.32;82.06;99412.38;86173;1312;22455;-80
2022/10/29 04:04:54;;;;;;;23.80;15.10;;;;;;;10.33;82.07;99414.14;86045;1299;22625;-80
2022/10/29 04:06:56;;;;;;;18.20;14.70;;;;;;;10.32;82.04;99418.18;86019;1292;98183;-80
2022/10/29 04:08:57;;;;;;;25.20;15.70;;;;;;;10.32;82.09;99415.55;86142;1296;23299;-79
2022/10/29 04:10:59;;;;;;;20.20;15.10;;;;;;;10.31;82.02;99419.45;86288;1296;25374;-80
2022/10/29 04:13:01;;;;;;;28.40;17.30;;;;;;;10.32;81.97;99423.65;86123;1306;98788;-77
2022/10/29 04:15:20;;;;;;;22.00;16.60;;;;;;;10.31;82.09;99431.39;86153;1301;25385;-80
2022/10/29 04:17:21;;;;;;;18.90;15.90;;;;;;;10.30;82.03;99428.62;86357;1298;22812;-80
2022/10/29 04:19:23;;;;;;;23.80;17.20;;;;;;;10.29;82.12;99426.05;86020;1297;98029;-79
2022/10/29 04:21:24;;;;;;;28.60;17.70;;;;;;;10.29;82.07;99424.65;86074;1290;22495;-78
2022/10/29 04:23:27;;;;;;;21.70;16.20;;;;;;;10.28;82.04;99424.66;86091;1312;24090;-81
2022/10/29 04:25:58;;;;;;;25.80;15.90;;;;;;;10.30;82.10;99426.37;86076;1312;98209;-81
2022/10/29 04:27:59;;;;;;;20.90;15.20;;;;;;;10.30;82.12;99425.82;86309;1291;25250;-80
2022/10/29 04:30:02;;;;;;;18.90;14.50;;;;;;;10.31;82.12;99425.23;86229;1312;22494;-78
2022/10/29 04:32:03;;;;;;;28.00;14.20;;;;;;;10.33;82.28;99420.44;86040;1296;98199;-80
2022/10/29 04:34:05;;;;;;;27.40;15.10;;;;;;;10.34;82.27;99418.30;86128;1291;22518;-79
2022/10/29 04:36:24;;;;;;;20.70;15.10;;;;;;;10.37;82.36;99418.90;86156;1281;98944;-79
2022/10/29 04:38:26;;;;;;;23.30;15.60;;;;;;;10.38;82.23;99415.02;86223;1296;22615;-80
2022/10/29 04:40:27;;;;;;;20.60;15.10;;;;;;;10.39;82.23;99421.60;86149;1291;24238;-80
2022/10/29 04:42:46;;;;;;;20.30;14.60;;;;;;;10.40;82.13;99423.70;86111;1290;99005;-80
2022/10/29 04:45:07;;;;;;;17.40;14.80;;;;;;;10.39;82.10;99426.21;86219;1297;22796;-80
2022/10/29 04:47:09;;;;;;;20.40;13.90;;;;;;;10.37;82.24;99421.52;86347;1290;22443;-80
2022/10/29 04:49:11;;;;;;;20.20;15.30;;;;;;;10.38;82.23;99418.52;86115;1296;98312;-81
2022/10/29 04:51:24;;;;;;;22.70;14.00;;;;;;;10.37;82.20;99421.19;86170;1289;23431;-80
2022/10/29 04:53:25;;;;;;;24.00;14.70;;;;;;;10.38;82.11;99419.40;86465;1292;24267;-80
2022/10/29 04:55:28;;;;;;;27.70;15.00;;;;;;;10.37;82.13;99424.88;86285;1287;98368;-80
2022/10/29 04:57:29;;;;;;;22.90;14.60;;;;;;;10.35;82.19;99425.98;86234;1291;22487;-80
2022/10/29 04:59:31;;;;;;;18.50;14.70;;;;;;;10.35;82.13;99430.73;86457;1290;22612;-77
2022/10/29 05:01:32;;;;;;;19.00;14.30;;;;;;;10.35;82.19;99432.51;86265;1291;98542;-79
2022/10/29 05:03:35;;;;;;;28.10;16.60;;;;;;;10.35;82.15;99427.78;86357;1296;22569;-79
2022/10/29 05:05:38;;;;;;;22.00;14.70;;;;;;;10.36;82.25;99424.05;86541;1297;22502;-80
2022/10/29 05:07:40;;;;;;;23.90;14.10;;;;;;;10.37;82.12;99427.69;86244;1307;98416;-80
2022/10/29 05:09:41;;;;;;;22.60;14.60;;;;;;;10.38;82.27;99427.48;86101;1299;22452;-80
2022/10/29 05:12:01;;;;;;;23.50;14.20;;;;;;;10.38;82.22;99427.29;86234;1291;25267;-77
2022/10/29 05:14:20;;;;;;;23.20;14.10;;;;;;;10.37;82.09;99421.34;86513;1287;22489;-80
2022/10/29 05:16:39;;;;;;;19.30;13.80;;;;;;;10.36;82.22;99428.41;86288;1300;22465;-79
2022/10/29 05:18:41;;;;;;;21.00;14.00;;;;;;;10.36;82.16;99427.21;86518;1296;99800;-78
2022/10/29 05:21:00;;;;;;;19.70;13.30;;;;;;;10.38;82.22;99429.40;86455;1314;22482;-79
2022/10/29 05:23:19;;;;;;;17.50;13.20;;;;;;;10.40;82.20;99433.89;86391;1307;22617;-78
2022/10/29 05:25:20;;;;;;;20.00;13.50;;;;;;;10.41;82.20;99434.58;86194;1293;98066;-80
2022/10/29 05:27:22;;;;;;;17.00;12.70;;;;;;;10.43;82.30;99442.56;86173;1298;22483;-78
2022/10/29 05:29:41;;;;;;;15.50;11.60;;;;;;;10.45;82.24;99429.67;86251;1313;27178;-82
2022/10/29 05:32:01;;;;;;;19.40;13.40;;;;;;;10.48;82.31;99424.11;86020;1296;98176;-78
2022/10/29 05:34:02;;;;;;;26.70;14.50;;;;;;;10.49;82.38;99420.88;86095;1294;22527;-80
2022/10/29 05:36:22;;;;;;;23.60;15.30;;;;;;;10.48;82.05;99424.11;86039;1298;98226;-81
2022/10/29 05:38:24;;;;;;;23.40;15.50;;;;;;;10.43;82.05;99420.98;86070;1299;25284;-78
2022/10/29 05:40:26;;;;;;;22.00;16.20;;;;;;;10.37;82.02;99414.86;86131;1298;23337;-81
2022/10/29 05:42:29;;;;;;;21.60;16.70;;;;;;;10.33;82.04;99415.34;85933;1307;98588;-81
2022/10/29 05:44:47;;;;;;;22.20;17.00;;;;;;;10.33;82.14;99413.77;86234;1298;22604;-82
2022/10/29 05:46:49;;;;;;;21.10;16.20;;;;;;;10.33;82.23;99435.56;86057;1297;22522;-83
2022/10/29 05:48:51;;;;;;;26.40;16.60;;;;;;;10.33;82.28;99436.77;85894;1317;99747;-81
2022/10/29 05:50:53;;;;;;;26.80;15.70;;;;;;;10.33;82.23;99425.55;86079;1296;26634;-82
2022/10/29 05:52:59;;;;;;;28.20;15.40;;;;;;;10.33;82.21;99430.99;86263;1296;24950;-81
2022/10/29 05:55:00;;;;;;;23.00;15.70;;;;;;;10.33;82.25;99431.00;85943;1307;99547;-78
2022/10/29 05:57:02;;;;;;;23.90;16.20;;;;;;;10.32;82.35;99430.30;86041;1290;22784;-80
2022/10/29 05:59:06;;;;;;;18.80;15.50;;;;;;;10.33;82.37;99425.89;86071;1315;22491;-80
2022/10/29 06:01:09;;;;;;;29.20;15.90;;;;;;;10.33;82.41;99429.56;85966;1312;98358;-78
2022/10/29 06:03:14;;;;;;;25.20;15.50;;;;;;;10.34;82.36;99443.77;86074;1297;23821;-81
2022/10/29 06:05:16;;;;;;;29.90;16.30;;;;;;;10.35;82.35;99450.61;86403;1292;22515;-82
2022/10/29 06:07:35;;;;;;;24.90;15.90;;;;;;;10.35;82.41;99440.60;86118;1286;98794;-81
2022/10/29 06:09:37;;;;;;;28.50;16.00;;;;;;;10.34;82.27;99439.39;86031;1298;23338;-81
2022/10/29 06:11:38;;;;;;;21.90;15.60;;;;;;;10.33;82.41;99436.25;85874;1292;24281;-81
2022/10/29 06:13:40;;;;;;;27.40;16.20;;;;;;;10.33;82.44;99443.29;85865;1289;98275;-81
2022/10/29 06:15:42;;;;;;;32.90;17.30;;;;;;;10.33;82.35;99440.31;85948;1289;22637;-82
2022/10/29 06:17:45;;;;;;;24.30;16.80;;;;;;;10.32;82.30;99435.77;85834;1299;26582;-82
2022/10/29 06:19:46;;;;;;;24.90;17.60;;;;;;;10.31;82.35;99439.64;85735;1300;99112;-82
2022/10/29 06:21:48;;;;;;;30.30;17.00;;;;;;;10.30;82.34;99434.62;85916;1293;22446;-81
2022/10/29 06:23:52;;;;;;;25.90;17.60;;;;;;;10.28;82.35;99435.56;86022;1297;24715;-82
2022/10/29 06:25:54;;;;;;;28.70;18.20;;;;;;;10.26;82.32;99441.26;85932;1287;98501;-81
2022/10/29 06:28:04;;;;;;;33.30;18.30;;;;;;;10.25;82.22;99455.88;85966;1291;25187;-81
2022/10/29 06:30:06;;;;;;;25.90;18.00;;;;;;;10.25;82.36;99451.49;86052;1300;24323;-81
2022/10/29 06:32:08;;;;;;;25.60;16.90;;;;;;;10.23;82.33;99449.11;86212;1294;98123;-81
2022/10/29 06:34:10;;;;;;;22.60;15.80;;;;;;;10.22;82.30;99453.70;86202;1294;22521;-83
2022/10/29 06:36:12;;;;;;;20.80;16.30;;;;;;;10.23;82.39;99463.16;86000;1312;24373;-82
2022/10/29 06:38:15;;;;;;;32.00;17.10;;;;;;;10.25;82.42;99460.29;86057;1284;98385;-81
2022/10/29 06:40:17;;;;;;;29.40;16.10;;;;;;;10.26;82.44;99454.29;86076;1289;23124;-82
2022/10/29 06:42:36;;;;;;;24.70;16.70;;;;;;;10.28;82.53;99453.64;86263;1289;98784;-82
2022/10/29 06:44:38;;;;;;;28.00;17.30;;;;;;;10.32;82.51;99454.04;86312;1297;24249;-82
2022/10/29 06:46:57;;;;;;;29.30;17.40;;;;;;;10.35;82.55;99444.81;86137;1283;22494;-82
2022/10/29 06:49:17;;;;;;;23.00;16.30;;;;;;;10.37;82.51;99442.61;86027;1290;98563;-78
2022/10/29 06:51:36;;;;;;;36.80;16.40;;;;;;;10.41;82.61;99455.48;86007;1291;25676;-80
2022/10/29 06:53:37;;;;;;;29.50;16.80;;;;;;;10.46;82.63;99465.11;86040;1284;22622;-81
2022/10/29 06:55:40;;;;;;;23.20;16.60;;;;;;;10.50;82.72;99462.65;85858;1289;98517;-79
2022/10/29 06:58:02;;;;;;;20.00;15.30;;;;;;;10.57;82.66;99459.23;86145;1291;26503;-79
2022/10/29 07:00:04;;;;;;;20.50;16.10;;;;;;;10.62;82.70;99460.23;86771;1291;26616;-82
2022/10/29 07:02:24;;;;;;;23.30;15.90;;;;;;;10.68;82.74;99463.02;86321;1290;25252;-81
2022/10/29 07:04:25;;;;;;;28.20;16.50;;;;;;;10.74;82.71;99469.46;86422;1289;22498;-80
2022/10/29 07:06:30;;;;;;;22.90;16.90;;;;;;;10.78;82.59;99468.23;86445;1286;98321;-82
2022/10/29 07:08:32;;;;;;;21.30;14.90;;;;;;;10.83;82.62;99472.59;86387;1295;22534;-81
2022/10/29 07:10:35;;;;;;;26.10;17.70;;;;;;;10.86;82.60;99474.58;86460;1290;22496;-83
2022/10/29 07:12:44;;;;;;;39.50;16.30;;;;;;;10.90;82.57;99481.41;86400;1287;98257;-81
2022/10/29 07:14:46;;;;;;;31.90;17.20;;;;;;;10.95;82.59;99486.68;86523;1291;22520;-80
2022/10/29 07:17:05;;;;;;;28.60;16.60;;;;;;;11.00;82.58;99483.83;86379;1290;22478;-81
2022/10/29 07:19:07;;;;;;;24.90;16.10;;;;;;;11.04;82.51;99483.66;86278;1298;98152;-84
2022/10/29 07:21:09;;;;;;;26.00;15.70;;;;;;;11.10;82.66;99489.38;86310;1289;24054;-81
2022/10/29 07:23:29;;;;;;;24.40;15.80;;;;;;;11.19;82.67;99490.44;86449;1306;22473;-84
2022/10/29 07:25:52;;;;;;;21.10;12.70;;;;;;;11.30;82.83;99496.30;86183;1294;99357;-81
2022/10/29 07:28:19;;;;;;;18.50;12.60;;;;;;;11.43;82.82;99492.41;85886;1289;22902;-78
2022/10/29 07:30:40;;;;;;;19.30;12.30;;;;;;;11.57;82.71;99493.17;85939;1283;98448;-81
2022/10/29 07:32:41;;;;;;;26.60;13.50;;;;;;;11.69;82.66;99497.26;86050;1292;24055;-82
2022/10/29 07:34:44;;;;;;;17.80;12.70;;;;;;;11.80;82.65;99494.13;86019;1289;23306;-78
2022/10/29 07:36:46;;;;;;;19.60;13.30;;;;;;;11.89;82.65;99501.08;85979;1290;99319;-82
2022/10/29 07:39:06;;;;;;;15.40;9.90;;;;;;;11.97;82.54;99496.90;86231;1283;22910;-82
2022/10/29 07:41:07;;;;;;;21.20;13.20;;;;;;;12.06;82.46;99493.48;85723;1292;195446;-81
2022/10/29 07:43:10;;;;;;;22.60;13.50;;;;;;;12.17;82.58;99491.61;86044;1290;98331;-79
2022/10/29 07:45:11;;;;;;;27.40;14.60;;;;;;;12.24;82.37;99483.33;86378;1289;22722;-80
2022/10/29 07:47:13;;;;;;;25.50;14.70;;;;;;;12.28;82.29;99489.30;86148;1297;22693;-77
2022/10/29 07:49:32;;;;;;;20.20;14.50;;;;;;;12.35;82.16;99497.45;86254;1290;99607;-79
2022/10/29 07:51:33;;;;;;;27.10;14.20;;;;;;;12.39;82.34;99499.21;86088;1284;22563;-80
2022/10/29 07:53:35;;;;;;;21.10;14.40;;;;;;;12.41;82.35;99502.25;86298;1293;22519;-80
2022/10/29 07:55:37;;;;;;;21.90;14.50;;;;;;;12.44;82.07;99498.08;86321;1289;98245;-80
2022/10/29 07:58:02;;;;;;;22.80;14.60;;;;;;;12.48;82.03;99504.22;86309;1284;22484;-78
2022/10/29 08:00:21;;;;;;;21.30;15.10;;;;;;;12.56;82.23;99507.38;86482;1290;22562;-81
2022/10/29 08:02:23;;;;;;;25.30;14.30;;;;;;;12.63;82.13;99506.35;86216;1284;99881;-80
2022/10/29 08:04:24;;;;;;;17.30;12.90;;;;;;;12.70;82.21;99515.70;86274;1284;22530;-80
2022/10/29 08:06:26;;;;;;;14.90;10.00;;;;;;;12.84;82.41;99511.33;86086;1291;98645;-80
2022/10/29 08:08:45;;;;;;;14.90;9.10;;;;;;;12.99;82.25;99503.39;86324;1291;24937;-80
2022/10/29 08:10:47;;;;;;;19.30;9.60;;;;;;;13.13;82.05;99510.45;86142;1283;22482;-80
2022/10/29 08:12:50;;;;;;;15.50;10.00;;;;;;;13.30;82.13;99512.77;85932;1293;98449;-80
2022/10/29 08:14:51;;;;;;;17.90;10.10;;;;;;;13.45;82.13;99513.95;86156;1290;22551;-78
2022/10/29 08:17:11;;;;;;;21.20;9.40;;;;;;;13.67;82.34;99516.20;86035;1290;22491;-81
2022/10/29 08:19:13;;;;;;;21.30;10.20;;;;;;;13.84;81.99;99522.73;85888;1299;98229;-80
2022/10/29 08:21:32;;;;;;;26.50;9.40;;;;;;;13.96;81.60;99525.45;86247;1297;25005;-79
2022/10/29 08:23:51;;;;;;;12.60;8.30;;;;;;;14.08;81.55;99521.60;86228;1289;23416;-79
2022/10/29 08:25:53;;;;;;;15.20;8.50;;;;;;;14.18;81.50;99525.70;86162;1289;98058;-77
2022/10/29 08:28:03;;;;;;;20.40;9.40;;;;;;;14.22;81.20;99527.77;86235;1291;22566;-81
2022/10/29 08:30:07;;;;;;;11.00;7.40;;;;;;;14.27;81.31;99525.92;86421;1286;22494;-80
2022/10/29 08:32:09;;;;;;;14.10;6.90;;;;;;;14.32;81.02;99528.79;86566;1288;98571;-81
2022/10/29 08:34:10;;;;;;;13.80;7.70;;;;;;;14.40;81.02;99522.00;86221;1285;25381;-79
2022/10/29 08:36:12;;;;;;;24.20;7.10;;;;;;;14.51;81.03;99520.72;86228;1290;23111;-80
2022/10/29 08:38:13;;;;;;;11.40;7.20;;;;;;;14.63;80.83;99522.52;86239;1289;98152;-81
2022/10/29 08:40:44;;;;;;;14.70;6.90;;;;;;;14.75;80.78;99521.87;86196;1293;22623;-80
2022/10/29 08:42:57;;;;;;;15.40;6.60;;;;;;;14.88;80.70;99513.20;86299;1313;98052;-81
2022/10/29 08:45:50;;;;;;;10.00;6.50;;;;;;;15.00;80.57;99511.77;86253;1291;25654;-80
2022/10/29 08:48:38;;;;;;;8.30;6.40;;;;;;;15.15;80.31;99514.77;86162;1290;22635;-80
2022/10/29 08:50:47;;;;;;;11.70;6.90;;;;;;;15.29;80.28;99517.48;86250;1290;25503;-80
2022/10/29 08:53:20;;;;;;;12.30;6.50;;;;;;;15.40;80.08;99515.98;86341;1291;22557;-81
2022/10/29 08:55:36;;;;;;;15.10;6.60;;;;;;;15.49;80.05;99518.65;86134;1299;98019;-80
2022/10/29 08:57:44;;;;;;;9.10;6.70;;;;;;;15.59;79.95;99514.67;86298;1285;23072;-82
2022/10/29 09:00:02;;;;;;;13.10;5.60;;;;;;;15.67;79.82;99510.64;86502;1284;24398;-81
2022/10/29 09:02:13;;;;;;;12.10;5.40;;;;;;;15.74;79.71;99507.36;86084;1288;97983;-80
2022/10/29 09:04:37;;;;;;;8.20;5.40;;;;;;;15.80;79.56;99507.58;86291;1289;22874;-82
2022/10/29 09:07:06;;;;;;;7.90;6.20;;;;;;;15.88;79.51;99508.50;86173;1294;97945;-81
2022/10/29 09:09:39;;;;;;;16.50;6.10;;;;;;;15.99;79.41;99509.64;86480;1297;24341;-80
2022/10/29 09:12:36;;;;;;;7.70;5.60;;;;;;;16.10;79.33;99510.00;86264;1290;25922;-80
2022/10/29 09:14:59;;;;;;;8.50;6.40;;;;;;;16.11;79.19;99498.95;86191;1289;24312;-78
2022/10/29 09:17:26;;;;;;;13.40;6.10;;;;;;;16.23;79.03;99513.99;86347;1283;24257;-81
2022/10/29 09:19:55;;;;;;;18.50;6.10;;;;;;;16.30;78.96;99506.09;86348;1290;98104;-78
2022/10/29 09:22:08;;;;;;;7.90;6.30;;;;;;;16.36;78.85;99501.83;86437;1297;22971;-78
2022/10/29 09:24:17;;;;;;;18.20;6.30;;;;;;;16.39;78.83;99496.33;86280;1289;24678;-81
2022/10/29 09:26:56;;;;;;;15.70;6.30;;;;;;;16.44;78.77;99499.54;86803;1283;98944;-81
2022/10/29 09:29:44;;;;;;;11.10;6.00;;;;;;;16.50;78.75;99501.78;86404;1284;22490;-80
2022/10/29 09:31:51;;;;;;;11.00;5.90;;;;;;;16.61;78.63;99496.34;85980;1293;98168;-80
2022/10/29 09:34:45;;;;;;;9.70;6.20;;;;;;;16.67;78.53;99497.87;85693;1289;25760;-81
2022/10/29 09:37:44;;;;;;;12.40;5.50;;;;;;;16.85;78.48;99494.92;84929;1298;97804;-78
2022/10/29 09:39:46;;;;;;;11.70;5.70;;;;;;;17.01;78.35;99497.15;85223;1301;22581;-79
2022/10/29 09:41:52;;;;;;;9.40;5.20;;;;;;;17.17;78.28;99499.63;84881;1304;24386;-80
2022/10/29 09:44:15;;;;;;;12.10;6.00;;;;;;;17.34;77.93;99500.77;85058;1302;98018;-80
2022/10/29 09:46:49;;;;;;;12.90;5.00;;;;;;;17.59;77.93;99500.87;84991;1295;23927;-79
2022/10/29 09:49:02;;;;;;;9.50;5.10;;;;;;;17.80;77.57;99494.96;84918;1302;98984;-79
2022/10/29 09:51:14;;;;;;;7.70;5.30;;;;;;;18.03;77.36;99493.54;85024;1295;25888;-80
2022/10/29 09:53:33;;;;;;;8.10;4.90;;;;;;;18.26;77.23;99495.83;85202;1301;22691;-80
2022/10/29 09:55:43;;;;;;;9.50;5.10;;;;;;;18.45;77.22;99492.89;85060;1306;97804;-81
2022/10/29 09:57:46;;;;;;;13.80;4.70;;;;;;;18.58;76.90;99488.59;85004;1305;22964;-80